createdAt,value
2023-03-06T00:00:49.002Z,32.78
2023-03-06T00:01:47.997Z,35.67
2023-03-06T00:02:48.991Z,36.23
2023-03-06T00:03:49.089Z,31.27
2023-03-06T00:04:49.035Z,36.72
2023-03-06T00:05:49.073Z,36.53
2023-03-06T00:06:48.049Z,35.45
2023-03-06T00:07:49.063Z,34.65
2023-03-06T00:08:49.061Z,36.65
2023-03-06T00:09:49.052Z,36.92
2023-03-06T00:10:49.043Z,36.29
2023-03-06T00:11:49.056Z,35.36
2023-03-06T00:12:48.124Z,34.74
2023-03-06T00:13:49.102Z,34.93
2023-03-06T00:14:49.073Z,36.08
2023-03-06T00:15:49.176Z,36.37
2023-03-06T00:16:48.080Z,35.82
2023-03-06T00:17:49.119Z,36.03
2023-03-06T00:18:49.126Z,37.70
2023-03-06T00:19:48.155Z,35.97
2023-03-06T00:20:48.166Z,37.62
2023-03-06T00:21:48.207Z,37.55
2023-03-06T00:22:49.258Z,31.24
2023-03-06T00:23:49.486Z,35.84
2023-03-06T00:24:48.354Z,30.87
2023-03-06T00:25:49.426Z,35.69
2023-03-06T00:26:49.477Z,32.70
2023-03-06T00:27:49.529Z,35.41
2023-03-06T00:28:49.628Z,29.77
2023-03-06T00:29:48.659Z,35.28
2023-03-06T00:30:49.722Z,29.09
2023-03-06T00:31:49.952Z,29.99
2023-03-06T00:32:49.845Z,38.29
2023-03-06T00:33:49.905Z,33.04
2023-03-06T00:34:49.937Z,32.45
2023-03-06T00:35:49.075Z,36.47
2023-03-06T00:36:50.042Z,30.03
2023-03-06T00:37:50.081Z,37.26
2023-03-06T00:38:50.140Z,37.26
2023-03-06T00:39:49.171Z,27.13
2023-03-06T00:40:49.211Z,31.34
2023-03-06T00:41:49.253Z,36.82
2023-03-06T00:42:50.300Z,34.60
2023-03-06T00:43:50.357Z,39.81
2023-03-06T00:44:50.391Z,27.12
2023-03-06T00:45:50.488Z,33.29
2023-03-06T00:46:49.458Z,40.72
2023-03-06T00:47:50.494Z,28.69
2023-03-06T00:48:50.554Z,30.73
2023-03-06T00:49:49.567Z,31.64
2023-03-06T00:50:49.622Z,33.77
2023-03-06T00:51:49.656Z,32.42
2023-03-06T00:52:49.665Z,32.54
2023-03-06T00:53:50.717Z,30.91
2023-03-06T00:54:50.740Z,37.17
2023-03-06T00:55:50.765Z,31.54
2023-03-06T00:56:50.804Z,31.32
2023-03-06T00:57:50.817Z,32.32
2023-03-06T00:58:50.866Z,35.55
2023-03-06T00:59:50.884Z,34.27
2023-03-06T01:00:50.917Z,33.31
2023-03-06T01:01:50.953Z,33.69
2023-03-06T01:02:50.957Z,31.02
2023-03-06T01:03:51.015Z,32.39
2023-03-06T01:04:51.004Z,30.42
2023-03-06T01:05:51.061Z,36.13
2023-03-06T01:06:50.057Z,32.27
2023-03-06T01:07:51.096Z,30.44
2023-03-06T01:08:51.124Z,40.22
2023-03-06T01:09:51.129Z,36.47
2023-03-06T01:10:51.186Z,32.10
2023-03-06T01:11:50.176Z,31.90
2023-03-06T01:12:51.212Z,33.74
2023-03-06T01:13:51.234Z,31.59
2023-03-06T01:14:50.255Z,31.66
2023-03-06T01:15:51.258Z,33.12
2023-03-06T01:16:51.315Z,33.06
2023-03-06T01:17:51.293Z,32.98
2023-03-06T01:18:51.347Z,31.27
2023-03-06T01:19:51.334Z,34.04
2023-03-06T01:20:51.376Z,32.41
2023-03-06T01:21:51.380Z,36.47
2023-03-06T01:22:51.434Z,34.09
2023-03-06T01:23:51.466Z,35.63
2023-03-06T01:24:50.428Z,34.28
2023-03-06T01:25:51.464Z,34.77
2023-03-06T01:26:50.485Z,35.02
2023-03-06T01:27:50.486Z,31.66
2023-03-06T01:28:51.556Z,33.18
2023-03-06T01:29:51.522Z,34.16
2023-03-06T01:30:51.540Z,36.40
2023-03-06T01:31:51.561Z,34.96
2023-03-06T01:32:51.566Z,32.73
2023-03-06T01:33:51.608Z,33.90
2023-03-06T01:34:51.610Z,34.79
2023-03-06T01:35:51.671Z,35.16
2023-03-06T01:36:51.674Z,33.06
2023-03-06T01:37:51.653Z,32.93
2023-03-06T01:38:51.681Z,35.44
2023-03-06T01:39:51.707Z,34.65
2023-03-06T01:40:51.710Z,34.51
2023-03-06T01:41:51.719Z,34.84
2023-03-06T01:42:51.724Z,36.29
2023-03-06T01:43:51.752Z,35.48
2023-03-06T01:44:51.735Z,33.69
2023-03-06T01:45:51.829Z,33.00
2023-03-06T01:46:50.758Z,34.45
2023-03-06T01:47:51.768Z,32.64
2023-03-06T01:48:51.785Z,33.31
2023-03-06T01:49:51.783Z,35.69
2023-03-06T01:50:51.782Z,33.17
2023-03-06T01:51:51.802Z,32.60
2023-03-06T01:52:51.799Z,34.49
2023-03-06T01:53:51.821Z,33.52
2023-03-06T01:54:51.825Z,35.49
2023-03-06T01:55:50.837Z,35.99
2023-03-06T01:56:51.819Z,33.70
2023-03-06T01:57:51.834Z,35.21
2023-03-06T01:58:51.842Z,33.50
2023-03-06T01:59:51.849Z,34.37
2023-03-06T02:00:51.917Z,37.27
2023-03-06T02:01:51.852Z,31.68
2023-03-06T02:02:51.877Z,34.06
2023-03-06T02:03:51.900Z,35.62
2023-03-06T02:04:51.866Z,33.88
2023-03-06T02:05:51.887Z,33.42
2023-03-06T02:06:51.886Z,34.14
2023-03-06T02:07:51.905Z,34.35
2023-03-06T02:08:51.907Z,34.50
2023-03-06T02:09:50.894Z,36.07
2023-03-06T02:10:51.896Z,36.62
2023-03-06T02:11:52.008Z,32.48
2023-03-06T02:12:51.901Z,32.62
2023-03-06T02:13:51.908Z,35.24
2023-03-06T02:14:51.906Z,31.47
2023-03-06T02:15:50.890Z,31.51
2023-03-06T02:16:51.969Z,32.28
2023-03-06T02:17:51.895Z,35.43
2023-03-06T02:18:51.907Z,34.01
2023-03-06T02:19:51.898Z,30.70
2023-03-06T02:20:51.891Z,36.03
2023-03-06T02:21:51.885Z,34.39
2023-03-06T02:22:51.884Z,33.17
2023-03-06T02:23:51.882Z,35.40
2023-03-06T02:24:51.885Z,33.70
2023-03-06T02:25:51.879Z,32.79
2023-03-06T02:26:50.869Z,33.93
2023-03-06T02:27:51.883Z,30.10
2023-03-06T02:28:52.811Z,31.76
2023-03-06T02:29:51.856Z,30.48
2023-03-06T02:30:51.946Z,33.26
2023-03-06T02:31:51.845Z,27.65
2023-03-06T02:32:51.881Z,30.87
2023-03-06T02:33:50.839Z,35.19
2023-03-06T02:34:51.854Z,30.45
2023-03-06T02:35:51.869Z,35.12
2023-03-06T02:36:50.844Z,32.79
2023-03-06T02:37:52.087Z,33.44
2023-03-06T02:38:50.832Z,32.34
2023-03-06T02:39:51.837Z,31.72
2023-03-06T02:40:51.839Z,31.55
2023-03-06T02:41:50.840Z,32.15
2023-03-06T02:42:51.830Z,32.99
2023-03-06T02:43:51.843Z,32.15
2023-03-06T02:44:51.861Z,33.01
2023-03-06T02:45:51.891Z,32.54
2023-03-06T02:46:51.805Z,29.37
2023-03-06T02:47:51.809Z,31.84
2023-03-06T02:48:51.820Z,30.53
2023-03-06T02:49:51.858Z,32.48
2023-03-06T02:50:51.836Z,31.87
2023-03-06T02:51:51.824Z,31.10
2023-03-06T02:52:50.807Z,32.19
2023-03-06T02:53:51.811Z,29.26
2023-03-06T02:54:51.801Z,32.62
2023-03-06T02:55:51.807Z,32.57
2023-03-06T02:56:51.877Z,32.66
2023-03-06T02:57:51.785Z,34.46
2023-03-06T02:58:51.791Z,32.40
2023-03-06T02:59:50.822Z,31.20
2023-03-06T03:00:51.771Z,31.88
2023-03-06T03:01:51.850Z,31.62
2023-03-06T03:02:50.761Z,32.93
2023-03-06T03:03:51.773Z,31.99
2023-03-06T03:04:51.862Z,27.85
2023-03-06T03:05:51.770Z,30.48
2023-03-06T03:06:51.765Z,31.76
2023-03-06T03:07:51.757Z,30.42
2023-03-06T03:08:51.791Z,30.22
2023-03-06T03:09:51.770Z,31.17
2023-03-06T03:10:50.753Z,31.21
2023-03-06T03:11:51.736Z,30.95
2023-03-06T03:12:51.738Z,32.04
2023-03-06T03:13:51.730Z,32.03
2023-03-06T03:14:50.725Z,29.69
2023-03-06T03:15:51.779Z,31.55
2023-03-06T03:16:51.730Z,31.56
2023-03-06T03:17:50.722Z,33.07
2023-03-06T03:18:50.707Z,31.71
2023-03-06T03:19:51.720Z,30.77
2023-03-06T03:20:50.722Z,30.25
2023-03-06T03:21:50.704Z,29.49
2023-03-06T03:22:51.702Z,31.09
2023-03-06T03:23:50.722Z,32.13
2023-03-06T03:24:51.781Z,30.52
2023-03-06T03:25:51.710Z,29.45
2023-03-06T03:26:51.696Z,31.24
2023-03-06T03:27:51.712Z,30.74
2023-03-06T03:28:51.709Z,32.21
2023-03-06T03:29:51.689Z,31.06
2023-03-06T03:30:51.737Z,27.39
2023-03-06T03:31:51.721Z,29.81
2023-03-06T03:32:51.689Z,34.20
2023-03-06T03:33:51.704Z,28.64
2023-03-06T03:34:50.681Z,32.08
2023-03-06T03:35:51.747Z,28.44
2023-03-06T03:36:51.674Z,32.02
2023-03-06T03:37:51.668Z,32.08
2023-03-06T03:38:51.674Z,28.38
2023-03-06T03:39:51.684Z,28.39
2023-03-06T03:40:51.676Z,31.84
2023-03-06T03:41:51.668Z,29.59
2023-03-06T03:42:51.661Z,30.27
2023-03-06T03:43:51.648Z,30.65
2023-03-06T03:44:51.652Z,31.63
2023-03-06T03:45:51.653Z,27.40
2023-03-06T03:46:50.746Z,26.80
2023-03-06T03:47:52.305Z,30.34
2023-03-06T03:48:51.664Z,31.98
2023-03-06T03:49:51.643Z,29.25
2023-03-06T03:50:50.665Z,29.84
2023-03-06T03:51:51.673Z,27.28
2023-03-06T03:52:51.659Z,26.96
2023-03-06T03:53:51.666Z,28.09
2023-03-06T03:54:51.667Z,26.92
2023-03-06T03:55:51.689Z,29.30
2023-03-06T03:56:51.682Z,30.29
2023-03-06T03:57:51.675Z,28.82
2023-03-06T03:58:50.669Z,29.47
2023-03-06T03:59:51.680Z,30.12
2023-03-06T04:00:51.695Z,28.26
2023-03-06T04:01:51.729Z,31.57
2023-03-06T04:02:51.679Z,28.83
2023-03-06T04:03:51.695Z,30.28
2023-03-06T04:04:51.772Z,30.12
2023-03-06T04:05:51.691Z,27.59
2023-03-06T04:06:51.684Z,30.76
2023-03-06T04:07:51.702Z,28.89
2023-03-06T04:08:51.717Z,29.74
2023-03-06T04:09:51.729Z,29.78
2023-03-06T04:10:51.765Z,29.13
2023-03-06T04:11:51.745Z,29.30
2023-03-06T04:12:51.749Z,30.69
2023-03-06T04:13:51.762Z,28.18
2023-03-06T04:14:51.779Z,28.87
2023-03-06T04:15:51.865Z,31.30
2023-03-06T04:16:51.790Z,29.20
2023-03-06T04:17:51.776Z,28.11
2023-03-06T04:18:51.788Z,26.14
2023-03-06T04:19:51.831Z,30.63
2023-03-06T04:20:51.818Z,28.83
2023-03-06T04:21:51.804Z,28.07
2023-03-06T04:22:50.810Z,27.68
2023-03-06T04:23:51.809Z,28.11
2023-03-06T04:24:51.837Z,27.24
2023-03-06T04:25:51.845Z,28.96
2023-03-06T04:26:51.847Z,27.11
2023-03-06T04:27:51.854Z,28.47
2023-03-06T04:28:51.833Z,29.06
2023-03-06T04:29:51.846Z,27.43
2023-03-06T04:30:51.894Z,27.67
2023-03-06T04:31:51.910Z,29.79
2023-03-06T04:32:51.927Z,29.08
2023-03-06T04:33:51.959Z,30.00
2023-03-06T04:34:51.967Z,25.50
2023-03-06T04:35:52.100Z,27.83
2023-03-06T04:36:50.963Z,27.83
2023-03-06T04:37:51.981Z,26.95
2023-03-06T04:38:52.061Z,25.37
2023-03-06T04:39:51.026Z,28.47
2023-03-06T04:40:52.044Z,29.06
2023-03-06T04:41:51.076Z,28.47
2023-03-06T04:42:51.104Z,32.21
2023-03-06T04:43:51.108Z,30.20
2023-03-06T04:44:52.090Z,30.09
2023-03-06T04:45:52.209Z,29.29
2023-03-06T04:46:52.097Z,28.81
2023-03-06T04:47:52.099Z,29.09
2023-03-06T04:48:52.115Z,28.07
2023-03-06T04:49:52.150Z,27.88
2023-03-06T04:50:51.167Z,30.07
2023-03-06T04:51:52.207Z,26.73
2023-03-06T04:52:52.194Z,28.85
2023-03-06T04:53:52.213Z,27.71
2023-03-06T04:54:52.244Z,30.16
2023-03-06T04:55:52.265Z,28.10
2023-03-06T04:56:51.279Z,26.50
2023-03-06T04:57:52.305Z,31.47
2023-03-06T04:58:52.304Z,28.51
2023-03-06T04:59:52.306Z,28.25
2023-03-06T05:00:52.384Z,32.35
2023-03-06T05:01:52.409Z,28.93
2023-03-06T05:02:52.371Z,27.57
2023-03-06T05:03:52.388Z,29.72
2023-03-06T05:04:51.423Z,28.13
2023-03-06T05:05:52.406Z,25.62
2023-03-06T05:06:52.422Z,29.66
2023-03-06T05:07:52.470Z,25.59
2023-03-06T05:08:51.465Z,29.31
2023-03-06T05:09:52.494Z,28.49
2023-03-06T05:10:52.511Z,28.71
2023-03-06T05:11:51.555Z,28.12
2023-03-06T05:12:51.603Z,25.57
2023-03-06T05:13:52.592Z,30.25
2023-03-06T05:14:52.624Z,28.27
2023-03-06T05:15:52.669Z,29.77
2023-03-06T05:16:52.690Z,25.96
2023-03-06T05:17:52.784Z,28.34
2023-03-06T05:18:53.422Z,26.39
2023-03-06T05:19:52.764Z,30.28
2023-03-06T05:20:52.776Z,28.58
2023-03-06T05:21:51.814Z,29.70
2023-03-06T05:22:52.818Z,30.47
2023-03-06T05:23:52.921Z,28.91
2023-03-06T05:24:52.853Z,27.78
2023-03-06T05:25:52.897Z,27.06
2023-03-06T05:26:52.914Z,26.40
2023-03-06T05:27:52.935Z,28.43
2023-03-06T05:28:52.948Z,27.87
2023-03-06T05:29:52.983Z,30.23
2023-03-06T05:30:53.032Z,28.86
2023-03-06T05:31:53.164Z,28.41
2023-03-06T05:32:52.121Z,28.74
2023-03-06T05:33:53.094Z,30.30
2023-03-06T05:34:53.185Z,29.22
2023-03-06T05:35:53.177Z,28.88
2023-03-06T05:36:53.198Z,26.31
2023-03-06T05:37:53.220Z,25.90
2023-03-06T05:38:53.253Z,28.69
2023-03-06T05:39:53.314Z,29.38
2023-03-06T05:40:53.324Z,28.29
2023-03-06T05:41:53.362Z,30.07
2023-03-06T05:42:53.385Z,32.18
2023-03-06T05:43:53.418Z,31.48
2023-03-06T05:44:53.448Z,29.24
2023-03-06T05:45:53.503Z,33.76
2023-03-06T05:46:53.647Z,31.11
2023-03-06T05:47:53.544Z,30.21
2023-03-06T05:48:53.564Z,28.17
2023-03-06T05:49:53.609Z,28.86
2023-03-06T05:50:53.657Z,28.61
2023-03-06T05:51:52.691Z,30.80
2023-03-06T05:52:53.756Z,29.55
2023-03-06T05:53:53.815Z,26.83
2023-03-06T05:54:53.832Z,30.04
2023-03-06T05:55:53.893Z,28.68
2023-03-06T05:56:53.986Z,28.64
2023-03-06T05:57:53.944Z,28.18
2023-03-06T05:58:53.973Z,29.16
2023-03-06T05:59:54.016Z,26.96
2023-03-06T06:00:54.052Z,27.49
2023-03-06T06:01:54.073Z,30.53
2023-03-06T06:02:54.105Z,29.17
2023-03-06T06:03:54.277Z,28.33
2023-03-06T06:04:53.186Z,27.60
2023-03-06T06:05:54.209Z,27.77
2023-03-06T06:06:54.245Z,27.88
2023-03-06T06:07:54.301Z,31.05
2023-03-06T06:08:54.349Z,29.21
2023-03-06T06:09:54.376Z,29.46
2023-03-06T06:10:54.440Z,28.73
2023-03-06T06:11:54.493Z,26.75
2023-03-06T06:12:54.492Z,28.26
2023-03-06T06:13:54.514Z,28.81
2023-03-06T06:14:54.565Z,27.79
2023-03-06T06:15:54.624Z,30.05
2023-03-06T06:16:53.679Z,30.71
2023-03-06T06:17:54.688Z,28.09
2023-03-06T06:18:54.729Z,29.53
2023-03-06T06:19:54.788Z,32.49
2023-03-06T06:20:56.033Z,31.46
2023-03-06T06:21:54.879Z,28.06
2023-03-06T06:22:54.932Z,33.19
2023-03-06T06:23:54.945Z,30.31
2023-03-06T06:24:54.007Z,28.47
2023-03-06T06:25:55.012Z,29.87
2023-03-06T06:26:55.032Z,30.73
2023-03-06T06:27:55.408Z,33.72
2023-03-06T06:28:55.102Z,27.03
2023-03-06T06:29:55.154Z,35.29
2023-03-06T06:30:55.205Z,35.14
2023-03-06T06:31:55.220Z,34.72
2023-03-06T06:32:54.288Z,38.71
2023-03-06T06:33:55.317Z,40.93
2023-03-06T06:34:55.332Z,45.53
2023-03-06T06:35:55.436Z,46.92
2023-03-06T06:36:54.456Z,47.28
2023-03-06T06:37:55.459Z,47.62
2023-03-06T06:38:55.551Z,47.70
2023-03-06T06:39:55.568Z,53.40
2023-03-06T06:41:29.167Z,53.52
2023-03-06T06:42:14.575Z,53.79
2023-03-06T06:42:55.641Z,54.30
2023-03-06T06:43:57.104Z,56.32
2023-03-06T06:44:55.647Z,54.26
2023-03-06T06:46:09.169Z,56.28
2023-03-06T06:47:55.600Z,54.82
2023-03-06T06:48:54.595Z,58.80
2023-03-06T06:49:54.696Z,66.62
2023-03-06T06:50:54.598Z,77.37
2023-03-06T06:51:55.556Z,98.51
2023-03-06T06:52:55.548Z,103.79
2023-03-06T06:53:55.533Z,107.35
2023-03-06T06:54:55.535Z,113.15
2023-03-06T06:55:55.513Z,117.92
2023-03-06T06:56:55.544Z,123.62
2023-03-06T06:57:55.522Z,128.09
2023-03-06T06:59:01.343Z,126.93
2023-03-06T06:59:55.532Z,127.43
2023-03-06T07:00:55.483Z,129.04
2023-03-06T07:01:55.516Z,131.15
2023-03-06T07:02:55.885Z,135.91
2023-03-06T07:03:55.516Z,144.09
2023-03-06T07:05:04.135Z,147.04
2023-03-06T07:05:55.455Z,147.52
2023-03-06T07:06:54.438Z,149.12
2023-03-06T07:07:55.469Z,151.11
2023-03-06T07:08:56.645Z,153.53
2023-03-06T07:09:55.432Z,147.69
2023-03-06T07:10:55.447Z,150.22
2023-03-06T07:11:55.424Z,154.94
2023-03-06T07:12:55.436Z,160.32
2023-03-06T07:13:55.407Z,163.65
2023-03-06T07:14:55.401Z,165.33
2023-03-06T07:15:55.415Z,164.72
2023-03-06T07:16:55.376Z,167.46
2023-03-06T07:17:55.387Z,168.52
2023-03-06T07:18:54.354Z,175.50
2023-03-06T07:19:55.384Z,179.58
2023-03-06T07:20:55.357Z,186.31
2023-03-06T07:21:54.383Z,186.22
2023-03-06T07:22:54.355Z,186.59
2023-03-06T07:23:55.318Z,192.27
2023-03-06T07:24:55.334Z,195.01
2023-03-06T07:25:55.316Z,197.93
2023-03-06T07:26:55.392Z,198.65
2023-03-06T07:27:55.473Z,201.66
2023-03-06T07:28:55.359Z,206.08
2023-03-06T07:29:55.279Z,209.28
2023-03-06T07:30:55.308Z,211.14
2023-03-06T07:31:55.369Z,211.37
2023-03-06T07:32:55.326Z,215.04
2023-03-06T07:33:55.246Z,219.37
2023-03-06T07:35:12.920Z,218.15
2023-03-06T07:35:55.286Z,218.70
2023-03-06T07:36:55.227Z,220.10
2023-03-06T07:37:55.236Z,222.80
2023-03-06T07:38:55.323Z,224.57
2023-03-06T07:39:55.219Z,230.39
2023-03-06T07:40:27.473Z,25.00
2023-03-06T07:40:55.230Z,231.07
2023-03-06T07:41:55.182Z,232.05
2023-03-06T07:42:57.691Z,232.90
2023-03-06T07:43:55.175Z,233.43
2023-03-06T07:44:55.176Z,235.16
2023-03-06T07:45:55.188Z,237.92
2023-03-06T07:46:54.245Z,240.27
2023-03-06T07:47:55.171Z,245.73
2023-03-06T07:48:55.164Z,246.69
2023-03-06T07:49:55.185Z,249.78
2023-03-06T07:50:55.151Z,247.84
2023-03-06T07:51:41.598Z,25.00
2023-03-06T07:51:55.118Z,249.06
2023-03-06T07:52:55.152Z,263.28
2023-03-06T07:53:55.444Z,340.29
2023-03-06T07:54:55.136Z,259.26
2023-03-06T07:55:55.118Z,219.27
2023-03-06T07:56:55.093Z,220.51
2023-03-06T07:57:54.085Z,216.18
2023-03-06T07:58:05.872Z,25.00
2023-03-06T07:58:57.063Z,207.10
2023-03-06T07:59:55.086Z,209.53
2023-03-06T08:00:55.854Z,211.49
2023-03-06T08:01:55.081Z,213.79
2023-03-06T08:02:55.149Z,210.39
2023-03-06T08:03:55.138Z,210.51
2023-03-06T08:04:55.028Z,211.11
2023-03-06T08:05:54.051Z,212.17
2023-03-06T08:06:55.011Z,212.39
2023-03-06T08:07:55.014Z,214.68
2023-03-06T08:08:55.021Z,217.05
2023-03-06T08:09:53.997Z,216.71
2023-03-06T08:10:54.985Z,230.58
2023-03-06T08:11:54.974Z,264.67
2023-03-06T08:12:54.959Z,275.84
2023-03-06T08:13:55.083Z,251.76
2023-03-06T08:14:54.972Z,247.74
2023-03-06T08:15:55.025Z,241.19
2023-03-06T08:16:55.036Z,238.97
2023-03-06T08:17:54.090Z,245.38
2023-03-06T08:18:50.080Z,25.00
2023-03-06T08:19:55.177Z,246.22
2023-03-06T08:20:00.298Z,25.00
2023-03-06T08:20:55.177Z,241.17
2023-03-06T08:21:55.191Z,242.82
2023-03-06T08:22:55.239Z,241.26
2023-03-06T08:23:32.776Z,25.00
2023-03-06T08:23:55.309Z,245.89
2023-03-06T08:24:55.276Z,244.45
2023-03-06T08:25:55.311Z,241.32
2023-03-06T08:26:55.315Z,243.78
2023-03-06T08:27:55.354Z,241.31
2023-03-06T08:28:55.411Z,240.95
2023-03-06T08:29:54.403Z,242.68
2023-03-06T08:30:55.427Z,239.93
2023-03-06T08:31:55.446Z,242.92
2023-03-06T08:32:55.509Z,244.56
2023-03-06T08:33:55.494Z,243.17
2023-03-06T08:34:55.482Z,243.74
2023-03-06T08:35:54.585Z,242.81
2023-03-06T08:36:54.511Z,243.05
2023-03-06T08:37:55.522Z,241.15
2023-03-06T08:38:55.561Z,241.03
2023-03-06T08:39:55.553Z,242.53
2023-03-06T08:40:55.554Z,240.80
2023-03-06T08:41:54.553Z,245.95
2023-03-06T08:42:55.615Z,242.31
2023-03-06T08:43:54.599Z,243.08
2023-03-06T08:44:54.619Z,243.93
2023-03-06T08:45:55.618Z,249.03
2023-03-06T08:46:54.607Z,246.64
2023-03-06T08:47:54.606Z,246.31
2023-03-06T08:48:55.902Z,251.99
2023-03-06T08:49:55.606Z,247.59
2023-03-06T08:50:55.698Z,246.44
2023-03-06T08:51:55.591Z,243.96
2023-03-06T08:52:54.622Z,246.74
2023-03-06T08:53:55.660Z,241.67
2023-03-06T08:54:19.944Z,0.00
2023-03-06T08:54:55.637Z,244.81
2023-03-06T08:55:55.662Z,243.16
2023-03-06T08:56:55.662Z,245.01
2023-03-06T08:57:54.429Z,25.00
2023-03-06T08:58:55.230Z,25.00
2023-03-06T08:59:55.093Z,25.00
2023-03-06T09:00:54.842Z,25.00
2023-03-06T09:01:54.740Z,249.20
2023-03-06T09:02:55.657Z,247.22
2023-03-06T09:03:54.649Z,249.04
2023-03-06T09:04:55.662Z,250.18
2023-03-06T09:05:54.674Z,248.15
2023-03-06T09:06:55.712Z,246.14
2023-03-06T09:07:54.680Z,247.62
2023-03-06T09:08:32.948Z,25.00
2023-03-06T09:08:55.685Z,246.77
2023-03-06T09:09:35.674Z,25.00
2023-03-06T09:09:55.689Z,247.51
2023-03-06T09:10:55.716Z,247.79
2023-03-06T09:11:52.447Z,25.00
2023-03-06T09:12:55.024Z,25.00
2023-03-06T09:13:53.732Z,25.00
2023-03-06T09:14:54.525Z,25.00
2023-03-06T09:15:55.745Z,247.62
2023-03-06T09:16:55.763Z,248.54
2023-03-06T09:17:55.725Z,246.98
2023-03-06T09:18:55.749Z,248.11
2023-03-06T09:19:55.727Z,248.56
2023-03-06T09:20:31.571Z,25.00
2023-03-06T09:20:55.741Z,249.27
2023-03-06T09:21:32.549Z,25.00
2023-03-06T09:21:54.768Z,250.58
2023-03-06T09:22:31.643Z,25.00
2023-03-06T09:22:55.775Z,247.29
2023-03-06T09:23:32.690Z,25.00
2023-03-06T09:23:55.812Z,247.38
2023-03-06T09:24:31.353Z,25.00
2023-03-06T09:24:54.799Z,249.34
2023-03-06T09:25:32.350Z,20.49
2023-03-06T09:25:55.826Z,246.37
2023-03-06T09:26:45.085Z,26.19
2023-03-06T09:26:55.822Z,249.17
2023-03-06T09:27:32.288Z,26.69
2023-03-06T09:28:10.516Z,249.00
2023-03-06T09:28:31.734Z,26.48
2023-03-06T09:28:55.856Z,249.14
2023-03-06T09:29:32.363Z,18.13
2023-03-06T09:29:55.841Z,249.59
2023-03-06T09:30:32.726Z,9.95
2023-03-06T09:30:55.899Z,249.77
2023-03-06T09:31:55.840Z,249.35
2023-03-06T09:32:51.065Z,25.00
2023-03-06T09:33:51.988Z,25.00
2023-03-06T09:34:53.058Z,25.00
2023-03-06T09:35:51.793Z,25.00
2023-03-06T09:36:56.943Z,25.00
2023-03-06T09:37:51.878Z,25.00
2023-03-06T09:38:51.704Z,25.00
2023-03-06T09:39:51.684Z,25.00
2023-03-06T09:40:50.657Z,25.00
2023-03-06T09:41:51.700Z,25.00
2023-03-06T09:41:55.762Z,249.18
2023-03-06T09:42:51.647Z,37.03
2023-03-06T09:43:51.723Z,37.02
2023-03-06T09:44:51.674Z,38.09
2023-03-06T09:45:51.720Z,25.00
2023-03-06T09:46:51.612Z,28.51
2023-03-06T09:47:51.622Z,33.29
2023-03-06T09:48:51.607Z,28.23
2023-03-06T09:49:51.622Z,25.00
2023-03-06T09:50:51.604Z,38.91
2023-03-06T09:51:51.595Z,68.59
2023-03-06T09:52:51.617Z,56.35
2023-03-06T09:53:50.708Z,37.74
2023-03-06T09:54:51.976Z,25.00
2023-03-06T09:55:51.618Z,35.17
2023-03-06T09:56:50.607Z,64.00
2023-03-06T09:57:54.001Z,75.09
2023-03-06T09:58:51.737Z,75.43
2023-03-06T09:59:51.667Z,76.40
2023-03-06T10:00:51.616Z,83.63
2023-03-06T10:01:50.737Z,70.36
2023-03-06T10:02:51.162Z,86.15
2023-03-06T10:03:51.564Z,85.60
2023-03-06T10:04:51.547Z,59.81
2023-03-06T10:05:51.515Z,57.54
2023-03-06T10:06:50.599Z,50.96
2023-03-06T10:07:51.872Z,56.74
2023-03-06T10:08:51.611Z,49.76
2023-03-06T10:09:51.549Z,19.76
2023-03-06T10:10:51.475Z,24.71
2023-03-06T10:11:50.529Z,31.51
2023-03-06T10:12:51.543Z,28.97
2023-03-06T10:13:51.461Z,53.49
2023-03-06T10:14:50.487Z,25.22
2023-03-06T10:15:51.455Z,38.90
2023-03-06T10:16:50.531Z,57.97
2023-03-06T10:17:51.532Z,24.57
2023-03-06T10:18:51.474Z,40.37
2023-03-06T10:19:51.509Z,43.00
2023-03-06T10:20:51.440Z,39.08
2023-03-06T10:21:50.532Z,44.16
2023-03-06T10:23:00.864Z,53.26
2023-03-06T10:23:51.467Z,53.73
2023-03-06T10:24:50.414Z,62.91
2023-03-06T10:25:50.478Z,72.87
2023-03-06T10:26:51.605Z,58.58
2023-03-06T10:27:50.399Z,60.39
2023-03-06T10:28:51.415Z,62.15
2023-03-06T10:30:02.821Z,182.20
2023-03-06T10:30:56.207Z,182.41
2023-03-06T10:31:56.229Z,183.08
2023-03-06T10:32:56.266Z,184.06
2023-03-06T10:33:10.075Z,25.00
2023-03-06T10:33:56.167Z,186.93
2023-03-06T10:34:10.021Z,25.00
2023-03-06T10:34:56.149Z,188.88
2023-03-06T10:35:56.217Z,187.17
2023-03-06T10:36:56.110Z,186.60
2023-03-06T10:37:56.107Z,191.47
2023-03-06T10:38:56.123Z,192.15
2023-03-06T10:39:56.098Z,192.72
2023-03-06T10:40:56.088Z,193.66
2023-03-06T10:41:56.093Z,194.59
2023-03-06T10:43:09.588Z,195.33
2023-03-06T10:43:56.112Z,195.58
2023-03-06T10:44:56.071Z,195.91
2023-03-06T10:45:56.073Z,197.38
2023-03-06T10:46:55.045Z,203.37
2023-03-06T10:47:56.058Z,206.52
2023-03-06T10:48:56.473Z,203.94
2023-03-06T10:49:56.044Z,210.44
2023-03-06T10:50:55.037Z,208.02
2023-03-06T10:51:31.576Z,25.00
2023-03-06T10:51:56.058Z,212.66
2023-03-06T10:52:55.000Z,210.64
2023-03-06T10:53:56.005Z,210.30
2023-03-06T10:54:55.002Z,216.20
2023-03-06T10:55:03.733Z,25.00
2023-03-06T10:55:55.041Z,214.17
2023-03-06T10:56:00.674Z,25.00
2023-03-06T10:56:56.014Z,208.96
2023-03-06T10:57:56.035Z,200.44
2023-03-06T10:58:34.662Z,25.00
2023-03-06T10:58:56.002Z,196.32
2023-03-06T10:59:56.019Z,192.32
2023-03-06T11:00:55.948Z,178.72
2023-03-06T11:01:56.035Z,168.28
2023-03-06T11:02:47.076Z,25.00
2023-03-06T11:03:55.944Z,169.12
2023-03-06T11:04:55.965Z,164.93
2023-03-06T11:05:54.926Z,158.33
2023-03-06T11:06:55.922Z,154.60
2023-03-06T11:07:55.911Z,154.62
2023-03-06T11:08:55.942Z,153.10
2023-03-06T11:09:56.017Z,153.33
2023-03-06T11:10:31.343Z,25.00
2023-03-06T11:10:56.036Z,152.34
2023-03-06T11:11:56.085Z,152.03
2023-03-06T11:12:50.210Z,25.00
2023-03-06T11:13:50.742Z,25.00
2023-03-06T11:14:50.997Z,25.00
2023-03-06T11:15:56.415Z,154.27
2023-03-06T11:16:02.487Z,25.00
2023-03-06T11:16:55.351Z,152.91
2023-03-06T11:17:56.400Z,154.64
2023-03-06T11:18:56.489Z,154.23
2023-03-06T11:19:56.512Z,156.17
2023-03-06T11:20:55.567Z,157.04
2023-03-06T11:21:56.620Z,158.33
2023-03-06T11:22:56.674Z,159.77
2023-03-06T11:23:56.724Z,160.55
2023-03-06T11:24:56.764Z,160.00
2023-03-06T11:25:02.629Z,25.00
2023-03-06T11:25:56.975Z,160.02
2023-03-06T11:26:56.857Z,162.75
2023-03-06T11:27:08.706Z,25.00
2023-03-06T11:27:56.899Z,163.29
2023-03-06T11:28:21.806Z,25.00
2023-03-06T11:28:56.995Z,162.95
2023-03-06T11:29:56.032Z,162.89
2023-03-06T11:30:57.014Z,164.28
2023-03-06T11:31:41.000Z,25.00
2023-03-06T11:32:57.103Z,165.09
2023-03-06T11:33:49.651Z,25.00
2023-03-06T11:34:57.174Z,166.41
2023-03-06T11:35:57.237Z,167.08
2023-03-06T11:36:07.147Z,25.00
2023-03-06T11:36:57.282Z,168.21
2023-03-06T11:37:57.291Z,168.78
2023-03-06T11:38:57.342Z,174.45
2023-03-06T11:39:45.831Z,25.00
2023-03-06T11:40:47.004Z,25.00
2023-03-06T11:41:46.926Z,25.00
2023-03-06T11:42:46.714Z,25.00
2023-03-06T11:43:46.906Z,25.00
2023-03-06T11:44:56.639Z,180.40
2023-03-06T11:45:57.735Z,178.42
2023-03-06T11:46:05.440Z,25.00
2023-03-06T11:46:57.805Z,179.36
2023-03-06T11:47:57.822Z,173.17
2023-03-06T11:48:56.883Z,163.15
2023-03-06T11:49:57.974Z,163.99
2023-03-06T11:50:58.007Z,160.31
2023-03-06T11:51:58.064Z,158.06
2023-03-06T11:52:58.136Z,154.84
2023-03-06T11:53:58.199Z,149.91
2023-03-06T11:54:57.238Z,148.80
2023-03-06T11:55:58.288Z,148.46
2023-03-06T11:56:58.376Z,148.90
2023-03-06T11:57:58.412Z,148.98
2023-03-06T11:58:58.504Z,148.86
2023-03-06T11:59:58.529Z,150.16
2023-03-06T12:00:58.577Z,151.37
2023-03-06T12:01:58.632Z,151.92
2023-03-06T12:02:58.665Z,154.71
2023-03-06T12:03:58.706Z,154.50
2023-03-06T12:04:58.785Z,156.76
2023-03-06T12:05:58.800Z,157.32
2023-03-06T12:06:58.828Z,158.84
2023-03-06T12:07:58.870Z,161.40
2023-03-06T12:08:58.921Z,162.46
2023-03-06T12:09:46.906Z,25.00
2023-03-06T12:10:58.964Z,163.93
2023-03-06T12:11:59.002Z,165.93
2023-03-06T12:12:04.360Z,25.00